createdAt,value
2023-04-13T05:33:39.848Z,5.90
2023-04-13T05:36:08.405Z,5.90
2023-04-13T05:38:38.605Z,6.20
2023-04-13T05:41:06.109Z,5.90
2023-04-13T05:43:37.866Z,6.00
2023-04-13T05:46:05.575Z,6.80
2023-04-13T05:51:01.978Z,6.00
2023-04-13T05:53:29.120Z,5.90
2023-04-13T05:55:56.318Z,6.20
2023-04-13T05:58:26.602Z,6.20
2023-04-13T06:00:54.241Z,6.30
2023-04-13T06:03:21.647Z,6.30
2023-04-13T06:05:49.165Z,6.50
2023-04-13T06:08:16.999Z,6.50
2023-04-13T06:10:47.272Z,6.60
2023-04-13T06:13:14.850Z,6.90
2023-04-13T06:15:42.310Z,8.70
2023-04-13T06:18:09.449Z,8.90
2023-04-13T06:20:36.945Z,9.60
2023-04-13T06:23:04.143Z,9.50
2023-04-13T06:25:31.779Z,9.00
2023-04-13T06:28:02.127Z,8.70
2023-04-13T06:30:29.415Z,8.40
2023-04-13T06:32:56.789Z,8.40
2023-04-13T06:35:24.321Z,8.70
2023-04-13T06:37:51.838Z,9.80
2023-04-13T06:40:21.023Z,10.60
2023-04-13T06:42:48.735Z,10.70
2023-04-13T06:45:15.878Z,10.00
2023-04-13T06:47:43.642Z,9.50
2023-04-13T06:50:15.674Z,8.90
2023-04-13T06:52:44.317Z,8.90
2023-04-13T06:55:11.911Z,8.70
2023-04-13T06:57:39.502Z,9.10
2023-04-13T07:00:15.378Z,8.80
2023-04-13T07:02:53.676Z,8.90
2023-04-13T07:05:20.974Z,9.70
2023-04-13T07:07:48.422Z,9.80
2023-04-13T07:10:15.673Z,10.10
2023-04-13T07:12:42.780Z,10.00
2023-04-13T07:15:10.135Z,10.30
2023-04-13T07:17:37.306Z,11.80
2023-04-13T07:20:07.353Z,13.70
2023-04-13T07:22:35.390Z,14.20
2023-04-13T07:25:03.002Z,15.30
2023-04-13T07:27:30.270Z,15.80
2023-04-13T07:29:57.433Z,14.70
2023-04-13T07:32:30.827Z,13.90
2023-04-13T07:35:01.526Z,13.10
2023-04-13T07:37:29.717Z,12.50
2023-04-13T07:39:57.186Z,12.00
2023-04-13T07:42:25.102Z,11.30
2023-04-13T07:44:56.345Z,11.10
2023-04-13T07:47:23.560Z,11.00
2023-04-13T07:49:51.297Z,11.20
2023-04-13T07:52:20.372Z,12.10
2023-04-13T07:54:47.506Z,12.00
2023-04-13T07:57:14.733Z,12.30
2023-04-13T07:59:41.873Z,12.70
2023-04-13T08:02:09.316Z,12.90
2023-04-13T08:04:37.179Z,12.60
2023-04-13T08:07:04.980Z,12.40
2023-04-13T08:09:36.144Z,11.70
2023-04-13T08:12:03.872Z,11.20
2023-04-13T08:14:31.353Z,11.30
2023-04-13T08:16:58.780Z,12.00
2023-04-13T08:19:25.968Z,11.60
2023-04-13T08:21:53.385Z,11.30
2023-04-13T08:24:21.052Z,11.80
2023-04-13T08:26:48.716Z,12.10
2023-04-13T08:29:15.826Z,11.80
2023-04-13T08:31:42.976Z,11.50
2023-04-13T08:34:10.817Z,13.10
2023-04-13T08:36:38.469Z,12.90
2023-04-13T08:39:10.265Z,13.00
2023-04-13T08:41:39.219Z,12.40
2023-04-13T08:44:08.580Z,13.60
2023-04-13T08:46:36.748Z,14.10
2023-04-13T08:49:04.476Z,13.90
2023-04-13T08:51:32.674Z,13.10
2023-04-13T08:54:00.079Z,12.70
2023-04-13T08:56:38.113Z,12.40
2023-04-13T08:59:13.570Z,12.10
2023-04-13T09:01:42.082Z,12.10
2023-04-13T09:04:11.562Z,12.10
2023-04-13T09:06:41.457Z,11.90
2023-04-13T09:09:10.984Z,11.30
2023-04-13T09:11:39.195Z,11.50
2023-04-13T09:14:07.004Z,11.50
2023-04-13T09:16:41.639Z,11.70
2023-04-13T09:19:09.524Z,12.40
2023-04-13T09:21:43.910Z,13.00
2023-04-13T09:24:12.508Z,13.90
2023-04-13T09:26:49.887Z,14.20
2023-04-13T09:29:19.105Z,13.90
2023-04-13T09:31:47.597Z,13.30
2023-04-13T09:34:25.391Z,13.20
2023-04-13T09:36:54.044Z,13.90
2023-04-13T09:39:29.113Z,14.80
2023-04-13T09:41:58.185Z,13.60
2023-04-13T09:44:27.992Z,12.90
2023-04-13T09:47:03.471Z,12.60
2023-04-13T09:49:43.469Z,12.20
2023-04-13T09:52:24.947Z,11.90
2023-04-13T09:54:59.873Z,12.10
2023-04-13T09:57:31.980Z,12.40
2023-04-13T10:00:07.238Z,12.80
2023-04-13T10:02:35.865Z,13.80
2023-04-13T10:05:04.004Z,15.20
2023-04-13T10:07:36.956Z,15.30
2023-04-13T10:10:04.701Z,15.10
2023-04-13T10:12:34.004Z,14.30
2023-04-13T10:15:21.021Z,13.70
2023-04-13T10:18:04.773Z,12.50
2023-04-13T10:20:33.619Z,11.90
2023-04-13T10:23:01.368Z,11.30
2023-04-13T10:25:33.859Z,10.70
2023-04-13T10:28:02.355Z,10.30
2023-04-13T10:30:29.647Z,9.80
2023-04-13T10:33:09.746Z,9.80
2023-04-13T10:35:37.701Z,9.50
2023-04-13T10:38:05.432Z,10.00
2023-04-13T10:40:46.264Z,10.30
2023-04-13T10:43:34.869Z,10.80
2023-04-13T10:46:10.936Z,11.50
2023-04-13T10:48:40.314Z,11.70
2023-04-13T10:51:07.782Z,11.70
2023-04-13T10:53:35.352Z,11.80
2023-04-13T10:56:02.584Z,12.30
2023-04-13T10:58:33.175Z,12.60
2023-04-13T11:01:00.697Z,12.70
2023-04-13T11:03:29.269Z,12.90
2023-04-13T11:05:59.145Z,12.90
2023-04-13T11:08:28.088Z,13.10
2023-04-13T11:10:57.142Z,12.80
2023-04-13T11:13:29.692Z,12.90
2023-04-13T11:16:06.766Z,13.20
2023-04-13T11:18:34.050Z,13.10
2023-04-13T11:21:05.900Z,12.40
2023-04-13T11:23:34.863Z,12.20
2023-04-13T11:26:02.955Z,12.00
2023-04-13T11:28:42.589Z,12.20
2023-04-13T11:31:11.285Z,12.90
2023-04-13T11:33:40.406Z,13.10
2023-04-13T11:36:09.820Z,13.60
2023-04-13T11:38:39.951Z,13.80
2023-04-13T11:41:16.279Z,14.10
2023-04-13T11:43:46.453Z,14.30
2023-04-13T11:46:16.058Z,14.50
2023-04-13T11:48:44.038Z,14.20
2023-04-13T11:51:11.914Z,14.10
2023-04-13T11:53:40.608Z,14.50
2023-04-13T11:56:08.634Z,14.10
2023-04-13T11:58:37.495Z,13.80
2023-04-13T12:01:14.201Z,13.80
2023-04-13T12:06:17.573Z,13.90
2023-04-13T12:08:57.561Z,14.20
2023-04-13T12:11:42.083Z,14.20
2023-04-13T12:14:49.770Z,14.20
2023-04-13T12:17:35.520Z,13.80
2023-04-13T12:20:03.341Z,13.10
2023-04-13T12:22:52.519Z,13.20
2023-04-13T12:25:24.414Z,13.90
2023-04-13T12:27:53.593Z,14.30
2023-04-13T12:30:22.435Z,13.80
2023-04-13T12:32:54.865Z,13.90
2023-04-13T12:35:22.471Z,14.10
2023-04-13T12:37:50.515Z,14.20
2023-04-13T12:40:18.469Z,13.80
2023-04-13T12:42:46.975Z,14.00
2023-04-13T12:45:15.351Z,13.80
2023-04-13T12:47:42.711Z,13.30
2023-04-13T12:50:11.404Z,12.80
2023-04-13T12:52:41.896Z,12.00
2023-04-13T12:55:09.671Z,11.70
2023-04-13T12:57:36.876Z,11.60
2023-04-13T13:00:09.536Z,11.70
2023-04-13T13:02:37.717Z,11.80
2023-04-13T13:05:05.533Z,11.70
2023-04-13T13:07:32.787Z,11.60
2023-04-13T13:10:01.873Z,11.50
2023-04-13T13:12:30.272Z,11.70
2023-04-13T13:15:01.343Z,11.80
2023-04-13T13:17:28.702Z,12.00
2023-04-13T13:19:56.390Z,12.30
2023-04-13T13:22:23.832Z,12.30
2023-04-13T13:24:51.171Z,12.00
2023-04-13T13:28:04.648Z,12.00
2023-04-13T13:30:07.242Z,12.10
2023-04-13T13:32:35.202Z,12.20
2023-04-13T13:35:03.480Z,12.50
2023-04-13T13:37:30.716Z,12.60
2023-04-13T13:39:58.157Z,12.80
2023-04-13T13:42:25.408Z,13.00
2023-04-13T13:44:52.626Z,12.90
2023-04-13T13:47:19.837Z,12.80
2023-04-13T13:49:47.007Z,12.80
2023-04-13T13:52:14.280Z,12.80
2023-04-13T13:54:41.439Z,13.10
2023-04-13T13:57:08.610Z,13.00
2023-04-13T13:59:35.792Z,12.70
2023-04-13T14:02:03.207Z,13.00
2023-04-13T14:04:30.629Z,12.60
2023-04-13T14:06:57.955Z,12.70
2023-04-13T14:09:25.292Z,12.50
2023-04-13T14:11:52.531Z,12.40
2023-04-13T14:14:22.168Z,11.80
2023-04-13T14:16:49.908Z,11.70
2023-04-13T14:19:18.292Z,13.60
2023-04-13T14:21:45.830Z,12.20
2023-04-13T14:24:12.937Z,12.00
2023-04-13T14:26:40.525Z,12.00
2023-04-13T14:29:09.004Z,11.90
2023-04-13T14:31:36.313Z,11.90
2023-04-13T14:34:03.980Z,12.00
2023-04-13T14:36:31.107Z,12.10
2023-04-13T14:39:00.264Z,12.00
2023-04-13T14:41:27.700Z,11.90
2023-04-13T14:43:54.978Z,11.70
2023-04-13T14:46:22.390Z,12.00
2023-04-13T14:48:49.572Z,12.50
2023-04-13T14:51:17.286Z,12.30
2023-04-13T14:53:44.544Z,12.40
2023-04-13T14:58:39.430Z,11.90
2023-04-13T15:01:18.992Z,12.30
2023-04-13T15:03:47.096Z,12.30
2023-04-13T15:06:14.884Z,12.10
2023-04-13T15:08:42.064Z,12.20
2023-04-13T15:11:09.447Z,12.30
2023-04-13T15:13:38.157Z,12.40
2023-04-13T15:16:07.630Z,12.30
2023-04-13T15:18:35.062Z,12.30
2023-04-13T15:21:05.168Z,12.40
2023-04-13T15:23:33.465Z,12.40
2023-04-13T15:26:03.655Z,12.50
2023-04-13T15:28:31.013Z,12.50
2023-04-13T15:30:58.206Z,12.40
2023-04-13T15:33:25.436Z,12.10
2023-04-13T15:35:52.783Z,12.00
2023-04-13T15:38:20.074Z,11.70
2023-04-13T15:40:47.428Z,11.70
2023-04-13T15:43:14.613Z,11.70
2023-04-13T15:45:41.811Z,11.50
2023-04-13T15:48:09.110Z,11.80
2023-04-13T15:50:36.247Z,11.90
2023-04-13T15:53:03.573Z,12.00
2023-04-13T15:55:30.701Z,12.10
2023-04-13T15:57:57.835Z,12.60
